createdAt,value
2019-03-30T00:00:52.073Z,101417.69
2019-03-30T00:05:56.476Z,101417.33
2019-03-30T00:11:00.912Z,101412.49
2019-03-30T00:16:05.254Z,101402.93
2019-03-30T00:21:09.601Z,101407.63
2019-03-30T00:26:13.956Z,101392.69
2019-03-30T00:31:18.329Z,101401.59
2019-03-30T00:36:22.752Z,101391.96
2019-03-30T00:41:27.673Z,101390.29
2019-03-30T00:46:32.108Z,101385.08
2019-03-30T00:51:36.491Z,101383.42
2019-03-30T00:56:40.857Z,101378.56
2019-03-30T01:01:45.204Z,101382.30
2019-03-30T01:06:49.540Z,101369.00
2019-03-30T01:11:53.892Z,101372.09
2019-03-30T01:16:58.266Z,101367.27
2019-03-30T01:22:02.625Z,101366.13
2019-03-30T01:27:07.158Z,101366.13
2019-03-30T01:32:12.503Z,101356.61
2019-03-30T01:37:16.853Z,101356.81
2019-03-30T01:42:21.214Z,101351.16
2019-03-30T01:47:25.601Z,101343.91
2019-03-30T01:52:29.939Z,101338.28
2019-03-30T01:57:34.294Z,101342.59
2019-03-30T02:02:38.722Z,101339.59
2019-03-30T02:07:44.143Z,101343.09
2019-03-30T02:12:48.501Z,101334.34
2019-03-30T02:17:53.246Z,101339.13
2019-03-30T02:22:57.596Z,101325.88
2019-03-30T02:28:01.966Z,101326.50
2019-03-30T02:33:06.521Z,101324.84
2019-03-30T02:38:10.853Z,101324.31
2019-03-30T02:43:15.323Z,101324.64
2019-03-30T02:48:20.312Z,101323.46
2019-03-30T02:53:24.720Z,101315.95
2019-03-30T02:58:29.135Z,101318.80
2019-03-30T03:03:33.446Z,101319.22
2019-03-30T03:08:37.821Z,101309.98
2019-03-30T03:13:42.139Z,101310.28
2019-03-30T03:18:47.583Z,101308.06
2019-03-30T03:23:51.928Z,101303.31
2019-03-30T03:28:56.324Z,101305.84
2019-03-30T03:34:00.732Z,101308.37
2019-03-30T03:39:05.986Z,101303.22
2019-03-30T03:44:10.421Z,101306.35
2019-03-30T03:49:14.766Z,101300.14
2019-03-30T03:54:19.293Z,101300.92
2019-03-30T03:59:26.597Z,101300.92
2019-03-30T04:04:31.328Z,101297.35
2019-03-30T04:09:36.150Z,101298.22
2019-03-30T04:14:43.747Z,101295.39
2019-03-30T04:19:48.120Z,101288.73
2019-03-30T04:24:52.513Z,101286.80
2019-03-30T04:29:56.848Z,101283.97
2019-03-30T04:35:01.294Z,101277.98
2019-03-30T04:40:07.049Z,101272.20
2019-03-30T04:45:11.435Z,101266.95
2019-03-30T04:50:15.799Z,101266.73
2019-03-30T04:55:20.199Z,101272.02
2019-03-30T05:00:24.599Z,101267.11
2019-03-30T05:05:28.963Z,101263.80
2019-03-30T05:10:33.320Z,101264.47
2019-03-30T05:15:37.662Z,101262.69
2019-03-30T05:20:42.024Z,101262.58
2019-03-30T05:25:46.380Z,101261.62
2019-03-30T05:30:50.776Z,101265.09
2019-03-30T05:35:55.207Z,101266.82
2019-03-30T05:40:59.545Z,101270.80
2019-03-30T05:46:03.955Z,101269.50
2019-03-30T05:51:08.342Z,101269.74
2019-03-30T05:56:12.710Z,101266.51
2019-03-30T06:01:17.158Z,101270.23
2019-03-30T06:06:22.603Z,101265.35
2019-03-30T06:11:26.951Z,101262.56
2019-03-30T06:16:31.301Z,101265.42
2019-03-30T06:21:35.709Z,101262.56
2019-03-30T06:26:40.071Z,101263.05
2019-03-30T06:31:46.744Z,101257.66
2019-03-30T06:36:50.502Z,101253.19
2019-03-30T06:41:55.001Z,101239.19
2019-03-30T06:46:59.389Z,101241.12
2019-03-30T06:52:03.768Z,101233.29
2019-03-30T06:57:08.191Z,101231.56
2019-03-30T07:02:12.553Z,101233.16
2019-03-30T07:07:17.416Z,101233.73
2019-03-30T07:12:26.222Z,101227.74
2019-03-30T07:17:30.593Z,101231.23
2019-03-30T07:22:34.969Z,101230.77
2019-03-30T07:27:39.355Z,101222.39
2019-03-30T07:32:45.170Z,101220.76
2019-03-30T07:37:49.461Z,101223.59
2019-03-30T07:42:53.858Z,101218.88
2019-03-30T07:47:58.249Z,101222.08
2019-03-30T07:53:02.610Z,101214.64
2019-03-30T07:58:07.038Z,101208.81
2019-03-30T08:03:11.464Z,101205.92
2019-03-30T08:08:17.464Z,101207.45
2019-03-30T08:13:21.824Z,101204.45
2019-03-30T08:18:26.210Z,101201.22
2019-03-30T08:23:40.394Z,101197.88
2019-03-30T08:28:36.656Z,101187.06
2019-03-30T08:33:41.028Z,101194.02
2019-03-30T08:38:45.392Z,101193.13
2019-03-30T08:43:49.792Z,101186.63
2019-03-30T08:48:54.182Z,101193.01
2019-03-30T08:53:58.566Z,101187.69
2019-03-30T08:59:02.978Z,101182.54
2019-03-30T09:04:07.341Z,101184.22
2019-03-30T09:09:11.720Z,101172.09
2019-03-30T09:14:16.066Z,101159.50
2019-03-30T09:19:20.427Z,101158.89
2019-03-30T09:24:24.810Z,101153.64
2019-03-30T09:29:29.165Z,101145.33
2019-03-30T09:34:33.530Z,101143.46
2019-03-30T09:39:37.990Z,101135.47
2019-03-30T09:44:42.432Z,101132.73
2019-03-30T09:49:47.034Z,101123.28
2019-03-30T09:54:51.418Z,101118.28
2019-03-30T09:59:56.838Z,101110.38
2019-03-30T10:05:02.398Z,101094.73
2019-03-30T10:10:07.510Z,101096.05
2019-03-30T10:15:12.018Z,101080.41
2019-03-30T10:20:18.997Z,101079.91
2019-03-30T10:25:22.832Z,101065.46
2019-03-30T10:30:27.338Z,101058.08
2019-03-30T10:35:31.708Z,101043.61
2019-03-30T10:40:36.048Z,101038.83
2019-03-30T10:45:40.462Z,101027.66
2019-03-30T10:50:44.819Z,101024.59
2019-03-30T10:55:49.181Z,101019.02
2019-03-30T11:00:53.551Z,101007.19
2019-03-30T11:05:57.933Z,101012.39
2019-03-30T11:11:02.269Z,101003.69
2019-03-30T11:16:06.652Z,100999.85
2019-03-30T11:21:11.025Z,100994.64
2019-03-30T11:26:15.393Z,100995.17
2019-03-30T11:31:19.728Z,100980.95
2019-03-30T11:36:25.073Z,100973.47
2019-03-30T11:41:29.443Z,100971.62
2019-03-30T11:46:33.925Z,100963.64
2019-03-30T11:51:38.336Z,100962.02
2019-03-30T11:56:42.717Z,100951.12
2019-03-30T12:01:47.127Z,100944.48
2019-03-30T12:06:51.984Z,100934.56
2019-03-30T12:11:56.491Z,100928.77
2019-03-30T12:17:00.844Z,100933.96
2019-03-30T12:22:05.224Z,100919.00
2019-03-30T12:27:09.543Z,100911.63
2019-03-30T12:32:13.918Z,100897.13
2019-03-30T12:37:18.305Z,100898.30
2019-03-30T12:42:22.674Z,100892.56
2019-03-30T12:47:27.137Z,100882.48
2019-03-30T12:52:31.511Z,100875.03
2019-03-30T12:57:35.906Z,100872.64
2019-03-30T13:02:40.285Z,100864.27
2019-03-30T13:12:48.714Z,100846.31
2019-03-30T13:17:53.086Z,100835.30
2019-03-30T13:22:57.462Z,100825.03
2019-03-30T13:28:01.835Z,100823.18
2019-03-30T13:33:07.254Z,100815.12
2019-03-30T13:38:12.603Z,100816.00
2019-03-30T13:43:16.981Z,100815.04
2019-03-30T13:48:21.335Z,100795.58
2019-03-30T13:53:25.807Z,100797.47
2019-03-30T13:58:30.136Z,100796.87
2019-03-30T14:03:35.656Z,100786.14
2019-03-30T14:08:40.270Z,100777.74
2019-03-30T14:13:44.715Z,100772.73
2019-03-30T14:18:49.195Z,100767.91
2019-03-30T14:23:53.664Z,100763.16
2019-03-30T14:28:58.191Z,100756.10
2019-03-30T14:34:02.523Z,100741.44
2019-03-30T14:39:07.477Z,100741.48
2019-03-30T14:44:11.806Z,100727.00
2019-03-30T14:49:16.271Z,100727.86
2019-03-30T14:54:20.740Z,100715.09
2019-03-30T14:59:25.108Z,100711.80
2019-03-30T15:04:29.472Z,100711.05
2019-03-30T15:09:33.832Z,100700.90
2019-03-30T15:14:38.237Z,100696.23
2019-03-30T15:19:42.619Z,100691.31
2019-03-30T15:24:47.034Z,100690.87
2019-03-30T15:29:52.579Z,100685.02
2019-03-30T15:34:58.490Z,100676.92
2019-03-30T15:40:02.991Z,100676.92
2019-03-30T15:45:09.627Z,100679.37
2019-03-30T15:50:14.373Z,100662.03
2019-03-30T15:55:18.734Z,100662.03
2019-03-30T16:00:23.081Z,100659.88
2019-03-30T16:05:27.426Z,100655.14
2019-03-30T16:10:31.861Z,100658.51
2019-03-30T16:15:36.316Z,100657.91
2019-03-30T16:20:40.785Z,100649.77
2019-03-30T16:25:45.130Z,100646.89
2019-03-30T16:30:49.489Z,100643.77
2019-03-30T16:35:53.855Z,100648.62
2019-03-30T16:40:58.216Z,100650.70
2019-03-30T16:46:02.640Z,100644.11
2019-03-30T16:51:07.179Z,100640.39
2019-03-30T16:56:11.630Z,100642.33
2019-03-30T17:01:16.008Z,100640.95
2019-03-30T17:06:20.377Z,100632.80
2019-03-30T17:11:24.914Z,100635.22
2019-03-30T17:16:29.480Z,100633.44
2019-03-30T17:21:33.890Z,100641.41
2019-03-30T17:26:38.309Z,100638.47
2019-03-30T17:31:42.843Z,100635.64
2019-03-30T17:36:47.307Z,100635.27
2019-03-30T17:41:51.725Z,100637.95
2019-03-30T17:46:56.104Z,100638.28
2019-03-30T17:52:00.562Z,100642.03
2019-03-30T17:57:04.926Z,100639.18
2019-03-30T18:02:09.289Z,100645.05
2019-03-30T18:07:15.914Z,100646.24
2019-03-30T18:12:20.608Z,100660.92
2019-03-30T18:17:27.880Z,100661.98
2019-03-30T18:22:33.798Z,100661.12
2019-03-30T18:27:39.237Z,100663.95
2019-03-30T18:32:44.689Z,100660.06
2019-03-30T18:37:52.822Z,100670.27
2019-03-30T18:43:01.975Z,100675.84
2019-03-30T18:48:18.376Z,100679.89
2019-03-30T18:53:26.131Z,100677.66
2019-03-30T18:58:41.459Z,100679.27
2019-03-30T19:03:39.769Z,100678.13
2019-03-30T19:08:47.050Z,100673.20
2019-03-30T19:13:57.845Z,100671.83
2019-03-30T19:19:02.339Z,100674.95
2019-03-30T19:24:06.941Z,100675.79
2019-03-30T19:29:11.474Z,100668.97
2019-03-30T19:34:15.927Z,100677.30
2019-03-30T19:39:20.308Z,100680.55
2019-03-30T19:44:24.651Z,100687.61
2019-03-30T19:49:29.056Z,100680.02
2019-03-30T19:54:33.447Z,100689.51
2019-03-30T19:59:37.847Z,100675.89
2019-03-30T20:04:42.217Z,100682.20
2019-03-30T20:09:46.605Z,100679.06
2019-03-30T20:14:51.007Z,100683.39
2019-03-30T20:19:55.388Z,100687.11
2019-03-30T20:24:59.750Z,100681.95
2019-03-30T20:30:06.784Z,100672.90
2019-03-30T20:35:11.354Z,100665.77
2019-03-30T20:40:15.761Z,100670.51
2019-03-30T20:45:20.143Z,100664.03
2019-03-30T20:50:24.511Z,100659.74
2019-03-30T20:55:28.892Z,100659.52
2019-03-30T21:00:33.398Z,100657.27
2019-03-30T21:05:37.770Z,100662.82
2019-03-30T21:10:42.158Z,100659.41
2019-03-30T21:15:46.531Z,100656.38
2019-03-30T21:20:50.970Z,100657.41
2019-03-30T21:25:55.354Z,100653.94
2019-03-30T21:30:59.742Z,100655.09
2019-03-30T21:36:04.131Z,100654.06
2019-03-30T21:41:09.591Z,100652.69
2019-03-30T21:46:13.971Z,100652.95
2019-03-30T21:51:18.618Z,100655.92
2019-03-30T21:56:23.030Z,100653.81
2019-03-30T22:01:27.405Z,100654.00
2019-03-30T22:06:31.815Z,100656.11
2019-03-30T22:11:36.657Z,100658.57
2019-03-30T22:16:41.094Z,100654.63
2019-03-30T22:21:45.437Z,100654.09
2019-03-30T22:26:49.828Z,100642.39
2019-03-30T22:31:54.242Z,100641.44
2019-03-30T22:36:58.629Z,100640.42
2019-03-30T22:42:03.108Z,100641.66
2019-03-30T22:47:07.454Z,100627.45
2019-03-30T22:52:11.905Z,100625.80
2019-03-30T22:57:16.284Z,100625.12
2019-03-30T23:02:20.681Z,100623.21
2019-03-30T23:07:25.065Z,100634.03
2019-03-30T23:12:29.431Z,100633.27
2019-03-30T23:17:33.788Z,100631.34
2019-03-30T23:22:38.180Z,100638.28
2019-03-30T23:27:42.561Z,100623.94
2019-03-30T23:32:48.106Z,100619.38
2019-03-30T23:37:52.448Z,100622.45
2019-03-30T23:42:56.844Z,100617.27
2019-03-30T23:48:01.468Z,100614.00
2019-03-30T23:53:07.554Z,100612.52
2019-03-30T23:58:13.256Z,100611.72
